Aérodrome :
LOGIN :

S'inscrire | Disclaimer

   EN    FR    IT 

 










Légende :    VFR   VFR Marginal   IFR   IFR Intensif   IFR Très Intensif
Visi : 
Plafond : 
>= 8 km
>= 3000ft
5 à 8 km
1000 à 3000 ft
1500m à 5 km
500 à 1000 ft
800 à 1500m
200 à 500 ft
< 800m
< 200 ft
Symboles :   Orages  Brouillard  Fortes neiges  Fortes précipitations  Vent > 20 kt
SIGMETs :   Divers  Orages  Givrage  Turbulence  Onde Orograph.  Cendres Volcan.







- Altitude de l'aérodrome : 37 ft


EHVL - Vlieland Heliport

DERNIER METAR :
  • 151157Z AUTO 18008KT 3500 BR OVC004 04/03 Q0994 YLO

METARs EXPIRÉS :
  • 151155Z AUTO 17007KT 4100 BR OVC004 04/03 Q0994 YLO
  • 151142Z AUTO 18007KT 3900 BR OVC003 04/04 Q0994 YLO
  • 151125Z AUTO 19009KT 3400 BR BKN003 OVC004 04/03 Q0993 YLO
  • 151055Z AUTO 19011KT 2900 BR BKN003 OVC004 03/03 Q0993 YLO
  • 151042Z AUTO 19012KT 1900 BR OVC002 03/03 Q0993 AMB
  • 151025Z AUTO 18013KT 1700 BR OVC001 03/03 Q0993 RED
  • 151005Z AUTO 18012KT 1200 BR OVC001 03/03 Q0993 RED
  • 150955Z AUTO 17012KT 1200 BR OVC001 03/03 Q0992 RED
  • 150940Z AUTO 18011KT 1000 BR OVC001 03/03 Q0992 RED
  • 150931Z AUTO 17011KT 0500 FG VV000 03/02 Q0992 RED
  • 150925Z AUTO 18012KT 1700 BR OVC001 03/02 Q0992 RED
  • 150912Z AUTO 18011KT 1800 BR OVC002 03/02 Q0991 AMB

Prévision TAF périmée.
Pas de NOTAMs connus pour ce terrain.



MET'MAP, la Météo Aéronautique d'un coup d'oeil ! - Copyright ORBIFLY Décembre 2007 - Disclaimer

ORBIFLY MET'MAP TEAM :

Programmation & Développement : Alexandra Zaïnal
Conception & Développement : Baudouin d'Aumeries
Co-Programmation & Développement : Marc-Olivier Méhu
Soutien technique & logistique : Manuel Goepfert

Contact : metmap@orbifly.com




SOURCES & CREDITS :

   NOAA